createdAt,value
2023-01-20T00:01:36.747Z,13.90
2023-01-20T00:04:03.839Z,13.70
2023-01-20T00:06:30.469Z,12.10
2023-01-20T00:09:00.265Z,11.80
2023-01-20T00:11:27.933Z,13.40
2023-01-20T00:14:01.327Z,11.00
2023-01-20T00:16:29.707Z,12.90
2023-01-20T00:18:56.278Z,13.70
2023-01-20T00:21:23.475Z,13.40
2023-01-20T00:23:50.400Z,14.90
2023-01-20T00:26:21.712Z,14.20
2023-01-20T00:28:49.189Z,13.70
2023-01-20T00:31:21.204Z,14.20
2023-01-20T00:33:49.350Z,13.90
2023-01-20T00:36:18.418Z,12.00
2023-01-20T00:38:44.947Z,13.70
2023-01-20T00:41:11.625Z,14.50
2023-01-20T00:43:38.960Z,13.40
2023-01-20T00:46:06.289Z,14.50
2023-01-20T00:48:33.834Z,13.20
2023-01-20T00:51:00.702Z,13.00
2023-01-20T00:53:27.289Z,12.50
2023-01-20T00:55:53.831Z,13.10
2023-01-20T00:58:21.002Z,13.50
2023-01-20T01:00:49.252Z,14.90
2023-01-20T01:03:15.911Z,14.00
2023-01-20T01:05:42.870Z,13.90
2023-01-20T01:08:09.428Z,14.70
2023-01-20T01:10:35.968Z,14.80
2023-01-20T01:13:04.534Z,14.40
2023-01-20T01:15:31.204Z,14.30
2023-01-20T01:17:58.757Z,15.70
2023-01-20T01:20:26.365Z,12.40
2023-01-20T01:22:52.853Z,14.80
2023-01-20T01:25:19.570Z,16.50
2023-01-20T01:27:46.057Z,14.50
2023-01-20T01:30:12.804Z,14.30
2023-01-20T01:32:39.327Z,15.70
2023-01-20T01:35:06.282Z,14.20
2023-01-20T01:37:32.802Z,14.10
2023-01-20T01:39:59.276Z,16.70
2023-01-20T01:42:26.563Z,16.30
2023-01-20T01:45:11.781Z,16.30
2023-01-20T01:47:43.080Z,12.80
2023-01-20T01:50:15.771Z,15.10
2023-01-20T01:52:48.401Z,16.20
2023-01-20T01:55:18.156Z,16.10
2023-01-20T01:57:45.655Z,16.30
2023-01-20T02:00:12.421Z,14.80
2023-01-20T02:02:39.481Z,15.60
2023-01-20T02:05:06.456Z,17.90
2023-01-20T02:07:34.487Z,15.70
2023-01-20T02:10:01.849Z,16.60
2023-01-20T02:12:29.571Z,15.10
2023-01-20T02:14:58.964Z,15.00
2023-01-20T02:17:43.406Z,16.70
2023-01-20T02:20:37.110Z,15.90
2023-01-20T02:23:12.630Z,15.80
2023-01-20T02:25:53.977Z,15.70
2023-01-20T02:28:42.062Z,16.40
2023-01-20T02:31:14.650Z,15.50
2023-01-20T02:33:46.082Z,15.20
2023-01-20T02:36:26.897Z,15.40
2023-01-20T02:39:27.249Z,14.80
2023-01-20T02:42:15.292Z,16.10
2023-01-20T02:44:53.832Z,15.30
2023-01-20T02:47:51.597Z,15.80
2023-01-20T02:50:43.490Z,16.20
2023-01-20T02:53:12.599Z,16.00
2023-01-20T02:55:47.385Z,13.80
2023-01-20T02:58:22.498Z,12.80
2023-01-20T03:00:58.089Z,14.30
2023-01-20T03:03:29.979Z,15.90
2023-01-20T03:05:59.755Z,13.30
2023-01-20T03:08:30.786Z,16.40
2023-01-20T03:11:07.325Z,14.00
2023-01-20T03:14:10.988Z,17.70
2023-01-20T03:16:38.952Z,15.00
2023-01-20T03:19:05.487Z,13.90
2023-01-20T03:21:34.038Z,14.60
2023-01-20T03:24:02.901Z,15.30
2023-01-20T03:26:29.389Z,16.40
2023-01-20T03:28:55.902Z,16.60
2023-01-20T03:31:29.898Z,12.80
2023-01-20T03:34:02.867Z,13.80
2023-01-20T03:36:31.867Z,14.60
2023-01-20T03:38:59.275Z,15.20
2023-01-20T03:41:56.544Z,15.30
2023-01-20T03:44:44.631Z,16.10
2023-01-20T03:47:13.821Z,14.40
2023-01-20T03:49:55.722Z,15.40
2023-01-20T03:52:51.918Z,16.00
2023-01-20T03:55:35.581Z,15.20
2023-01-20T03:58:07.568Z,13.50
2023-01-20T04:00:37.911Z,15.10
2023-01-20T04:03:08.791Z,14.40
2023-01-20T04:05:37.267Z,14.30
2023-01-20T04:08:08.173Z,10.90
2023-01-20T04:10:38.592Z,15.20
2023-01-20T04:13:05.384Z,12.10
2023-01-20T04:15:36.838Z,12.30
2023-01-20T04:18:18.549Z,12.90
2023-01-20T04:23:24.812Z,10.90
2023-01-20T04:25:51.297Z,14.90
2023-01-20T04:28:17.768Z,13.30
2023-01-20T04:30:44.380Z,14.80
2023-01-20T04:33:10.883Z,11.60
2023-01-20T04:35:37.360Z,13.10
2023-01-20T04:38:03.854Z,13.80
2023-01-20T04:40:30.567Z,12.60
2023-01-20T04:42:57.005Z,12.90
2023-01-20T04:45:23.532Z,13.20
2023-01-20T04:47:49.972Z,10.20
2023-01-20T04:50:16.817Z,12.50
2023-01-20T04:52:43.524Z,13.50
2023-01-20T04:55:11.206Z,12.60
2023-01-20T04:57:37.834Z,12.90
2023-01-20T05:00:06.545Z,12.20
2023-01-20T05:02:33.099Z,14.60
2023-01-20T05:04:59.629Z,10.90
2023-01-20T05:07:26.095Z,14.10
2023-01-20T05:09:52.590Z,12.00
2023-01-20T05:12:19.056Z,11.50
2023-01-20T05:14:45.531Z,13.80
2023-01-20T05:17:12.023Z,11.90
2023-01-20T05:19:38.487Z,14.90
2023-01-20T05:22:04.933Z,13.40
2023-01-20T05:24:31.397Z,13.60
2023-01-20T05:27:00.714Z,15.10
2023-01-20T05:29:28.341Z,16.40
2023-01-20T05:31:54.921Z,15.40
2023-01-20T05:34:21.616Z,13.90
2023-01-20T05:36:52.251Z,14.30
2023-01-20T05:39:18.911Z,12.60
2023-01-20T05:41:45.523Z,14.90
2023-01-20T05:44:13.086Z,13.50
2023-01-20T05:46:39.625Z,14.50
2023-01-20T05:49:06.110Z,15.10
2023-01-20T05:51:32.655Z,13.20
2023-01-20T05:53:59.130Z,13.90
2023-01-20T05:56:25.587Z,14.60
2023-01-20T05:58:56.204Z,13.80
2023-01-20T06:01:22.956Z,14.30
2023-01-20T06:03:49.476Z,12.50
2023-01-20T06:06:15.986Z,12.80
2023-01-20T06:08:43.092Z,12.40
2023-01-20T06:11:10.032Z,12.50
2023-01-20T06:13:36.831Z,14.10
2023-01-20T06:16:05.148Z,14.30
2023-01-20T06:18:34.325Z,12.90
2023-01-20T06:21:00.868Z,14.50
2023-01-20T06:23:29.912Z,12.00
2023-01-20T06:26:07.557Z,13.70
2023-01-20T06:28:34.628Z,14.40
2023-01-20T06:31:19.241Z,16.30
2023-01-20T06:33:45.810Z,13.90
2023-01-20T06:36:12.438Z,14.80
2023-01-20T06:38:38.990Z,14.10
2023-01-20T06:41:07.866Z,14.30
2023-01-20T06:43:35.417Z,13.50
2023-01-20T06:46:03.850Z,12.90
2023-01-20T06:48:31.242Z,12.40
2023-01-20T06:51:12.077Z,14.70
2023-01-20T06:53:39.799Z,15.20
2023-01-20T06:56:06.831Z,18.50
2023-01-20T06:58:34.004Z,14.70
2023-01-20T07:01:28.363Z,15.70
2023-01-20T07:03:57.334Z,14.20
2023-01-20T07:06:31.515Z,15.30
2023-01-20T07:09:04.582Z,14.40
2023-01-20T07:11:31.130Z,10.30
2023-01-20T07:13:58.411Z,13.20
2023-01-20T07:16:25.031Z,15.70
2023-01-20T07:18:53.168Z,16.80
2023-01-20T07:21:20.231Z,15.10
2023-01-20T07:23:47.417Z,15.30
2023-01-20T07:26:16.788Z,13.90
2023-01-20T07:28:43.725Z,16.60
2023-01-20T07:31:13.592Z,18.10
2023-01-20T07:33:40.197Z,15.70
2023-01-20T07:36:08.629Z,14.00
2023-01-20T07:38:35.625Z,14.90
2023-01-20T07:41:05.341Z,14.20
2023-01-20T07:43:32.763Z,15.00
2023-01-20T07:46:01.902Z,15.80
2023-01-20T07:48:30.644Z,14.80
2023-01-20T07:50:59.677Z,16.10
2023-01-20T07:53:26.180Z,14.10
2023-01-20T07:55:52.686Z,15.90
2023-01-20T07:58:19.193Z,16.20
2023-01-20T08:00:45.695Z,13.40
2023-01-20T08:03:12.214Z,14.80
2023-01-20T08:05:38.742Z,14.60
2023-01-20T08:08:05.453Z,16.20
2023-01-20T08:10:31.978Z,13.90
2023-01-20T08:12:58.678Z,14.00
2023-01-20T08:15:25.304Z,17.40
2023-01-20T08:17:55.706Z,17.20
2023-01-20T08:20:25.087Z,14.60
2023-01-20T08:22:51.573Z,17.40
2023-01-20T08:25:18.058Z,13.90
2023-01-20T08:27:44.526Z,16.00
2023-01-20T08:30:11.647Z,16.90
2023-01-20T08:32:38.096Z,15.30
2023-01-20T08:35:05.059Z,15.80
2023-01-20T08:37:35.397Z,14.70
2023-01-20T08:40:02.011Z,15.80
2023-01-20T08:42:28.491Z,17.50
2023-01-20T08:44:55.019Z,18.60
2023-01-20T08:47:21.509Z,15.50
2023-01-20T08:49:48.318Z,13.10
2023-01-20T08:52:14.876Z,14.60
2023-01-20T08:54:41.472Z,18.10
2023-01-20T08:57:07.956Z,17.50
2023-01-20T08:59:34.413Z,15.40
2023-01-20T09:02:00.876Z,16.30
2023-01-20T09:04:27.367Z,19.30
2023-01-20T09:06:53.958Z,19.40
2023-01-20T09:09:22.019Z,20.60
2023-01-20T09:11:49.044Z,18.50
2023-01-20T09:14:15.548Z,18.70
2023-01-20T09:16:42.026Z,16.00
2023-01-20T09:19:08.494Z,15.30
2023-01-20T09:21:35.009Z,14.20
2023-01-20T09:24:01.485Z,21.50
2023-01-20T09:26:35.695Z,19.20
2023-01-20T09:29:03.557Z,17.40
2023-01-20T09:31:30.089Z,16.20
2023-01-20T09:33:58.737Z,17.40
2023-01-20T09:36:25.337Z,17.90
2023-01-20T09:38:51.871Z,15.70
2023-01-20T09:41:29.037Z,18.50
2023-01-20T09:44:16.810Z,15.50
2023-01-20T09:46:50.779Z,16.10
2023-01-20T09:49:36.285Z,16.50
2023-01-20T09:52:17.902Z,16.70
2023-01-20T09:54:50.491Z,19.30
2023-01-20T09:57:20.876Z,15.90
2023-01-20T09:59:55.678Z,16.70
2023-01-20T10:02:27.904Z,17.40
2023-01-20T10:05:05.048Z,14.30
2023-01-20T10:07:45.198Z,18.90
2023-01-20T10:10:22.268Z,16.20
2023-01-20T10:12:55.863Z,14.50
2023-01-20T10:15:27.777Z,19.40
2023-01-20T10:18:21.024Z,17.80
2023-01-20T10:21:12.028Z,16.10
2023-01-20T10:23:48.368Z,18.30
2023-01-20T10:26:28.798Z,21.80
2023-01-20T10:29:04.096Z,19.20
2023-01-20T10:31:39.355Z,15.60
2023-01-20T10:34:21.082Z,15.80
2023-01-20T10:39:34.931Z,15.80
2023-01-20T10:42:10.990Z,15.00
2023-01-20T10:44:37.519Z,12.40
2023-01-20T10:47:15.777Z,15.10
2023-01-20T10:49:58.108Z,14.40
2023-01-20T10:52:33.803Z,13.70
2023-01-20T10:55:41.350Z,13.00
2023-01-20T10:58:14.142Z,13.80
2023-01-20T11:00:42.541Z,11.50
2023-01-20T11:03:15.041Z,11.90
2023-01-20T11:05:42.217Z,12.20
2023-01-20T11:08:16.070Z,12.20
2023-01-20T11:10:43.232Z,13.70
2023-01-20T11:13:11.425Z,11.90
2023-01-20T11:15:50.643Z,12.20
2023-01-20T11:18:17.199Z,12.50
2023-01-20T11:20:59.628Z,13.40
2023-01-20T11:23:35.327Z,13.50
2023-01-20T11:26:28.260Z,12.30
2023-01-20T11:29:23.998Z,12.20
2023-01-20T11:31:55.702Z,10.10
2023-01-20T11:34:35.551Z,10.00
2023-01-20T11:37:04.884Z,11.60
2023-01-20T11:39:37.703Z,10.90
2023-01-20T11:42:20.116Z,11.20
2023-01-20T11:44:53.672Z,11.40
2023-01-20T11:47:22.943Z,8.70
2023-01-20T11:50:10.776Z,9.70
2023-01-20T11:52:41.746Z,9.70
2023-01-20T11:55:44.967Z,9.70
2023-01-20T11:58:17.672Z,10.90
2023-01-20T12:00:44.917Z,10.30
2023-01-20T12:03:50.545Z,11.30
2023-01-20T12:06:23.129Z,10.50
2023-01-20T12:08:51.049Z,8.40
2023-01-20T12:11:27.636Z,28.60
2023-01-20T12:14:18.012Z,59.60
2023-01-20T12:16:49.677Z,80.10
2023-01-20T12:21:52.067Z,84.40
2023-01-20T12:24:42.685Z,50.40
2023-01-20T12:27:18.547Z,51.50
2023-01-20T12:29:46.779Z,82.00
2023-01-20T12:32:13.428Z,28.00
2023-01-20T12:34:39.946Z,25.80
2023-01-20T12:37:17.364Z,18.10
2023-01-20T12:40:09.976Z,17.10
2023-01-20T12:42:57.960Z,15.70
2023-01-20T12:45:33.601Z,14.40
2023-01-20T12:48:29.038Z,11.90
2023-01-20T12:51:31.486Z,13.50
2023-01-20T12:54:07.084Z,13.40
2023-01-20T12:56:44.552Z,13.30
2023-01-20T12:59:17.304Z,12.40
2023-01-20T13:01:49.801Z,13.60
2023-01-20T13:04:44.181Z,11.60
2023-01-20T13:07:17.993Z,10.90
2023-01-20T13:10:18.765Z,13.50
2023-01-20T13:12:51.778Z,12.10
2023-01-20T13:15:25.167Z,11.90
2023-01-20T13:18:22.812Z,12.20
2023-01-20T13:20:51.077Z,12.20
2023-01-20T13:23:33.342Z,12.10
2023-01-20T13:26:01.766Z,12.10
2023-01-20T13:28:30.257Z,11.30
2023-01-20T13:30:59.416Z,15.20
2023-01-20T13:33:41.005Z,14.30
2023-01-20T13:36:17.099Z,14.00
2023-01-20T13:38:44.531Z,13.50
2023-01-20T13:41:11.858Z,15.70
2023-01-20T13:43:44.301Z,14.00
2023-01-20T13:46:13.819Z,13.60
2023-01-20T13:49:14.296Z,14.00
2023-01-20T13:51:44.836Z,14.60
2023-01-20T13:54:23.160Z,16.60
2023-01-20T13:56:49.647Z,16.30
2023-01-20T13:59:16.166Z,15.80
2023-01-20T14:01:43.185Z,17.30
2023-01-20T14:04:18.808Z,15.10
2023-01-20T14:06:47.563Z,17.70
2023-01-20T14:09:25.305Z,16.80
2023-01-20T14:11:54.588Z,16.60
2023-01-20T14:14:45.011Z,17.80
2023-01-20T14:17:16.886Z,22.60
2023-01-20T14:19:47.522Z,19.00
2023-01-20T14:22:18.396Z,21.30
2023-01-20T14:24:46.964Z,18.50
2023-01-20T14:27:21.079Z,19.30
2023-01-20T14:29:49.551Z,19.10
2023-01-20T14:32:26.486Z,25.40
2023-01-20T14:34:54.059Z,18.80
2023-01-20T14:37:27.623Z,20.20
2023-01-20T14:39:55.745Z,21.00
2023-01-20T14:42:23.988Z,23.30
2023-01-20T14:44:52.883Z,21.80
2023-01-20T14:47:21.497Z,23.40
2023-01-20T14:49:49.916Z,21.10
2023-01-20T14:52:26.852Z,21.40
2023-01-20T14:54:53.499Z,25.50
2023-01-20T14:57:19.887Z,22.50
2023-01-20T14:59:47.198Z,24.20
2023-01-20T15:02:40.778Z,22.40
2023-01-20T15:05:22.978Z,24.30
2023-01-20T15:07:49.625Z,23.60
2023-01-20T15:10:17.708Z,23.10
2023-01-20T15:12:47.240Z,23.80
2023-01-20T15:15:22.823Z,24.30
2023-01-20T15:18:11.281Z,22.30
2023-01-20T15:20:41.612Z,20.50
2023-01-20T15:23:27.450Z,27.70
2023-01-20T15:25:54.089Z,20.10
2023-01-20T15:28:29.401Z,19.90
2023-01-20T15:30:58.408Z,22.30
2023-01-20T15:33:25.724Z,20.70
2023-01-20T15:35:59.860Z,18.80
2023-01-20T15:38:31.816Z,17.70
2023-01-20T15:40:59.375Z,19.60
2023-01-20T15:43:25.902Z,19.60
2023-01-20T15:45:52.371Z,17.60
2023-01-20T15:48:20.727Z,17.40
2023-01-20T15:50:48.584Z,19.60
2023-01-20T15:53:15.682Z,17.90
2023-01-20T15:55:52.129Z,18.10
2023-01-20T15:58:27.231Z,16.40
2023-01-20T16:00:55.101Z,17.40
2023-01-20T16:03:22.979Z,19.20
2023-01-20T16:05:51.568Z,16.40
2023-01-20T16:08:21.106Z,16.50
2023-01-20T16:10:48.004Z,16.00
2023-01-20T16:13:14.913Z,18.30
2023-01-20T16:15:43.110Z,14.70
2023-01-20T16:18:17.218Z,17.40
2023-01-20T16:20:47.471Z,18.10
2023-01-20T16:23:14.151Z,14.30
2023-01-20T16:25:41.115Z,17.30
2023-01-20T16:28:21.392Z,15.10
2023-01-20T16:30:49.157Z,17.50
2023-01-20T16:33:24.264Z,18.10
2023-01-20T16:35:53.824Z,15.50
2023-01-20T16:38:25.708Z,15.80
2023-01-20T16:40:57.780Z,17.60
2023-01-20T16:43:24.794Z,19.70
2023-01-20T16:45:53.681Z,16.60
2023-01-20T16:48:28.123Z,19.10
2023-01-20T16:50:54.700Z,20.70
2023-01-20T16:53:21.489Z,21.10
2023-01-20T16:55:49.329Z,20.00
2023-01-20T16:58:16.866Z,21.60
2023-01-20T17:00:43.781Z,16.50
2023-01-20T17:03:13.514Z,18.70
2023-01-20T17:05:40.447Z,19.20
2023-01-20T17:08:08.282Z,20.70
2023-01-20T17:10:36.909Z,17.70
2023-01-20T17:13:03.478Z,17.50
2023-01-20T17:15:29.939Z,19.00
2023-01-20T17:17:57.596Z,17.30
2023-01-20T17:20:26.444Z,19.10
2023-01-20T17:22:53.834Z,18.10
2023-01-20T17:25:20.559Z,17.50
2023-01-20T17:27:47.058Z,20.00
2023-01-20T17:30:14.782Z,17.50
2023-01-20T17:32:46.068Z,22.80
2023-01-20T17:35:12.572Z,17.00
2023-01-20T17:37:39.054Z,22.60
2023-01-20T17:40:06.244Z,17.60
2023-01-20T17:42:32.718Z,20.20
2023-01-20T17:44:59.221Z,20.60
2023-01-20T17:47:25.769Z,19.10
2023-01-20T17:49:52.303Z,17.80
2023-01-20T17:52:19.031Z,18.60
2023-01-20T17:54:49.303Z,22.80
2023-01-20T17:57:15.762Z,22.50
2023-01-20T17:59:42.387Z,22.30
2023-01-20T18:02:12.626Z,22.20
2023-01-20T18:04:39.482Z,21.70
2023-01-20T18:07:06.041Z,22.70
2023-01-20T18:09:32.577Z,20.40
2023-01-20T18:11:59.089Z,21.60
2023-01-20T18:14:25.605Z,19.60
2023-01-20T18:16:52.169Z,18.60
2023-01-20T18:19:18.685Z,16.60
2023-01-20T18:21:45.245Z,20.10
2023-01-20T18:24:12.798Z,18.50
2023-01-20T18:26:40.768Z,23.20
2023-01-20T18:29:12.319Z,20.00
2023-01-20T18:31:39.200Z,18.80
2023-01-20T18:34:08.127Z,15.90
2023-01-20T18:36:37.437Z,19.50
2023-01-20T18:39:11.847Z,20.90
2023-01-20T18:41:38.680Z,20.40
2023-01-20T18:44:06.184Z,18.20
2023-01-20T18:46:33.018Z,16.30
2023-01-20T18:49:00.417Z,20.00
2023-01-20T18:51:29.370Z,20.70
2023-01-20T18:54:01.062Z,15.50
2023-01-20T18:56:28.891Z,16.60
2023-01-20T18:58:56.457Z,16.70
2023-01-20T19:01:26.003Z,16.10
2023-01-20T19:03:52.525Z,15.20
2023-01-20T19:06:20.243Z,16.80
2023-01-20T19:08:47.664Z,14.80
2023-01-20T19:11:19.765Z,14.80
2023-01-20T19:13:47.687Z,15.00
2023-01-20T19:16:14.531Z,14.10
2023-01-20T19:18:42.443Z,13.60
2023-01-20T19:21:12.681Z,12.20
2023-01-20T19:23:39.527Z,11.90
2023-01-20T19:26:11.911Z,13.40
2023-01-20T19:28:39.702Z,12.90
2023-01-20T19:31:11.861Z,12.40
2023-01-20T19:33:42.101Z,12.70
2023-01-20T19:36:14.576Z,13.50
2023-01-20T19:38:41.372Z,14.60
2023-01-20T19:41:09.065Z,12.50
2023-01-20T19:43:36.241Z,15.20
2023-01-20T19:46:04.183Z,13.90
2023-01-20T19:48:31.158Z,12.40
2023-01-20T19:51:15.283Z,13.00
2023-01-20T19:53:43.109Z,14.60
2023-01-20T19:56:12.736Z,14.60
2023-01-20T19:58:39.682Z,14.90
2023-01-20T20:01:29.187Z,15.60
2023-01-20T20:03:58.206Z,13.00
2023-01-20T20:06:30.994Z,12.60
2023-01-20T20:09:07.651Z,13.70
2023-01-20T20:11:34.634Z,12.90
2023-01-20T20:14:04.154Z,13.40
2023-01-20T20:16:33.417Z,12.20
2023-01-20T20:19:00.192Z,15.80
2023-01-20T20:21:27.290Z,14.80
2023-01-20T20:23:57.071Z,15.90
2023-01-20T20:26:26.524Z,13.90
2023-01-20T20:28:53.681Z,14.60
2023-01-20T20:31:20.711Z,14.30
2023-01-20T20:33:47.328Z,16.00
2023-01-20T20:36:14.852Z,16.10
2023-01-20T20:38:41.514Z,16.30
2023-01-20T20:41:09.298Z,16.30
2023-01-20T20:43:37.381Z,20.60
2023-01-20T20:46:05.733Z,16.30
2023-01-20T20:48:32.856Z,21.30
2023-01-20T20:51:11.700Z,15.60
2023-01-20T20:53:38.547Z,18.60
2023-01-20T20:56:16.336Z,17.30
2023-01-20T20:58:59.743Z,20.30
2023-01-20T21:01:27.748Z,18.10
2023-01-20T21:03:54.412Z,22.90
2023-01-20T21:06:20.925Z,23.90
2023-01-20T21:08:47.409Z,20.90
2023-01-20T21:11:14.219Z,21.00
2023-01-20T21:13:40.711Z,19.80
2023-01-20T21:16:11.135Z,23.50
2023-01-20T21:18:38.724Z,20.60
2023-01-20T21:21:08.293Z,22.90
2023-01-20T21:23:35.043Z,22.20
2023-01-20T21:26:04.411Z,20.00
2023-01-20T21:28:34.915Z,19.40
2023-01-20T21:31:06.213Z,23.30
2023-01-20T21:33:32.750Z,20.40
2023-01-20T21:36:01.625Z,19.20
2023-01-20T21:38:28.095Z,22.20
2023-01-20T21:40:54.940Z,22.10
2023-01-20T21:43:21.462Z,18.20
2023-01-20T21:45:57.342Z,18.70
2023-01-20T21:48:23.909Z,21.70
2023-01-20T21:50:50.415Z,18.30
2023-01-20T21:53:17.040Z,20.50
2023-01-20T21:55:43.493Z,19.20
2023-01-20T21:58:09.983Z,20.60
2023-01-20T22:00:36.504Z,22.50
2023-01-20T22:03:04.176Z,23.00
2023-01-20T22:05:30.665Z,24.00
2023-01-20T22:07:57.112Z,20.50
2023-01-20T22:10:23.663Z,22.60
2023-01-20T22:12:50.138Z,22.00
2023-01-20T22:15:16.683Z,20.30
2023-01-20T22:17:43.164Z,21.50
2023-01-20T22:20:10.410Z,19.10
2023-01-20T22:22:36.863Z,20.70
2023-01-20T22:25:03.510Z,20.20
2023-01-20T22:27:30.008Z,20.20
2023-01-20T22:29:56.529Z,21.50
2023-01-20T22:32:23.051Z,18.20
2023-01-20T22:34:49.599Z,22.40
2023-01-20T22:37:16.084Z,24.10
2023-01-20T22:39:43.109Z,22.50
2023-01-20T22:42:09.616Z,22.30
2023-01-20T22:44:36.100Z,21.70
2023-01-20T22:47:02.568Z,19.70
2023-01-20T22:49:29.145Z,22.90
2023-01-20T22:51:55.613Z,22.90
2023-01-20T22:54:22.149Z,21.10
2023-01-20T22:56:48.698Z,17.90
2023-01-20T22:59:15.263Z,21.70
2023-01-20T23:01:41.760Z,20.70
2023-01-20T23:04:09.821Z,20.10
2023-01-20T23:06:36.534Z,20.30
2023-01-20T23:09:06.814Z,19.00
2023-01-20T23:11:34.067Z,21.20
2023-01-20T23:14:00.610Z,18.90
2023-01-20T23:16:27.322Z,21.70
2023-01-20T23:18:53.813Z,18.30
2023-01-20T23:21:22.122Z,22.10
2023-01-20T23:23:48.789Z,18.40
2023-01-20T23:26:18.984Z,22.10
2023-01-20T23:28:46.937Z,18.90
2023-01-20T23:31:15.722Z,18.90
2023-01-20T23:33:43.869Z,22.40
2023-01-20T23:36:19.187Z,19.40
2023-01-20T23:38:45.888Z,17.60
2023-01-20T23:41:13.764Z,22.70
2023-01-20T23:43:40.723Z,19.10
2023-01-20T23:46:08.430Z,18.40
2023-01-20T23:48:35.965Z,21.30
2023-01-20T23:51:03.067Z,20.50
2023-01-20T23:53:32.133Z,21.90
2023-01-20T23:56:00.567Z,20.90
2023-01-20T23:58:27.104Z,20.70
